sensor_id;sensor_type;location;lat;lon;timestamp;P1;durP1;ratioP1;P2;durP2;ratioP2
41233;SDS011;26968;42.686;23.352;2023-02-28T00:00:49;32.92;;;18.80;;
41233;SDS011;26968;42.686;23.352;2023-02-28T00:03:14;36.83;;;19.17;;
41233;SDS011;26968;42.686;23.352;2023-02-28T00:05:40;31.20;;;17.55;;
41233;SDS011;26968;42.686;23.352;2023-02-28T00:08:08;33.33;;;17.33;;
41233;SDS011;26968;42.686;23.352;2023-02-28T00:10:33;35.28;;;17.23;;
41233;SDS011;26968;42.686;23.352;2023-02-28T00:13:03;29.25;;;17.35;;
41233;SDS011;26968;42.686;23.352;2023-02-28T00:15:30;29.92;;;16.70;;
41233;SDS011;26968;42.686;23.352;2023-02-28T00:17:56;31.60;;;18.77;;
41233;SDS011;26968;42.686;23.352;2023-02-28T00:20:22;35.08;;;18.60;;
41233;SDS011;26968;42.686;23.352;2023-02-28T00:22:48;33.53;;;18.10;;
41233;SDS011;26968;42.686;23.352;2023-02-28T00:25:17;29.58;;;17.20;;
41233;SDS011;26968;42.686;23.352;2023-02-28T00:27:44;33.92;;;18.17;;
41233;SDS011;26968;42.686;23.352;2023-02-28T00:30:12;34.95;;;16.92;;
41233;SDS011;26968;42.686;23.352;2023-02-28T00:32:41;33.35;;;16.48;;
41233;SDS011;26968;42.686;23.352;2023-02-28T00:35:07;32.63;;;17.70;;
41233;SDS011;26968;42.686;23.352;2023-02-28T00:37:33;31.88;;;17.23;;
41233;SDS011;26968;42.686;23.352;2023-02-28T00:39:59;33.42;;;16.13;;
41233;SDS011;26968;42.686;23.352;2023-02-28T00:42:24;33.67;;;17.65;;
41233;SDS011;26968;42.686;23.352;2023-02-28T00:44:50;35.78;;;18.67;;
41233;SDS011;26968;42.686;23.352;2023-02-28T00:47:15;30.83;;;17.30;;
41233;SDS011;26968;42.686;23.352;2023-02-28T00:49:41;38.80;;;19.65;;
41233;SDS011;26968;42.686;23.352;2023-02-28T00:52:06;42.58;;;21.05;;
41233;SDS011;26968;42.686;23.352;2023-02-28T00:54:32;36.40;;;21.25;;
41233;SDS011;26968;42.686;23.352;2023-02-28T00:56:58;39.08;;;20.70;;
41233;SDS011;26968;42.686;23.352;2023-02-28T00:59:23;45.10;;;20.50;;
41233;SDS011;26968;42.686;23.352;2023-02-28T01:01:49;44.25;;;20.73;;
41233;SDS011;26968;42.686;23.352;2023-02-28T01:04:14;41.83;;;22.35;;
41233;SDS011;26968;42.686;23.352;2023-02-28T01:06:40;39.85;;;22.42;;
41233;SDS011;26968;42.686;23.352;2023-02-28T01:09:07;41.85;;;21.27;;
41233;SDS011;26968;42.686;23.352;2023-02-28T01:11:33;37.00;;;20.55;;
41233;SDS011;26968;42.686;23.352;2023-02-28T01:13:59;35.67;;;20.35;;
41233;SDS011;26968;42.686;23.352;2023-02-28T01:16:25;41.30;;;21.77;;
41233;SDS011;26968;42.686;23.352;2023-02-28T01:18:51;36.58;;;19.83;;
41233;SDS011;26968;42.686;23.352;2023-02-28T01:21:17;42.47;;;21.10;;
41233;SDS011;26968;42.686;23.352;2023-02-28T01:23:44;41.13;;;20.05;;
41233;SDS011;26968;42.686;23.352;2023-02-28T01:26:12;43.67;;;21.27;;
41233;SDS011;26968;42.686;23.352;2023-02-28T01:28:38;41.85;;;21.58;;
41233;SDS011;26968;42.686;23.352;2023-02-28T01:31:03;37.47;;;21.38;;
41233;SDS011;26968;42.686;23.352;2023-02-28T01:33:29;40.83;;;20.08;;
41233;SDS011;26968;42.686;23.352;2023-02-28T01:36:02;36.78;;;20.30;;
41233;SDS011;26968;42.686;23.352;2023-02-28T01:38:32;36.03;;;20.67;;
41233;SDS011;26968;42.686;23.352;2023-02-28T01:40:58;36.30;;;19.20;;
41233;SDS011;26968;42.686;23.352;2023-02-28T01:43:25;35.05;;;19.08;;
41233;SDS011;26968;42.686;23.352;2023-02-28T01:45:52;39.42;;;20.17;;
41233;SDS011;26968;42.686;23.352;2023-02-28T01:48:20;37.65;;;21.08;;
41233;SDS011;26968;42.686;23.352;2023-02-28T01:53:18;38.00;;;18.92;;
41233;SDS011;26968;42.686;23.352;2023-02-28T01:55:48;38.63;;;19.10;;
41233;SDS011;26968;42.686;23.352;2023-02-28T01:58:17;37.55;;;19.95;;
41233;SDS011;26968;42.686;23.352;2023-02-28T02:00:43;46.13;;;20.85;;
41233;SDS011;26968;42.686;23.352;2023-02-28T02:03:09;45.03;;;21.00;;
41233;SDS011;26968;42.686;23.352;2023-02-28T02:05:38;41.05;;;21.63;;
41233;SDS011;26968;42.686;23.352;2023-02-28T02:08:09;46.80;;;22.10;;
41233;SDS011;26968;42.686;23.352;2023-02-28T02:13:15;52.20;;;24.45;;
41233;SDS011;26968;42.686;23.352;2023-02-28T02:16:01;44.88;;;22.73;;
41233;SDS011;26968;42.686;23.352;2023-02-28T02:18:37;42.60;;;23.52;;
41233;SDS011;26968;42.686;23.352;2023-02-28T02:27:32;43.85;;;22.20;;
41233;SDS011;26968;42.686;23.352;2023-02-28T02:36:26;44.10;;;23.50;;
41233;SDS011;26968;42.686;23.352;2023-02-28T02:38:58;43.90;;;23.45;;
41233;SDS011;26968;42.686;23.352;2023-02-28T02:41:35;46.67;;;23.13;;
41233;SDS011;26968;42.686;23.352;2023-02-28T02:44:13;56.25;;;26.92;;
41233;SDS011;26968;42.686;23.352;2023-02-28T02:46:47;50.35;;;25.73;;
41233;SDS011;26968;42.686;23.352;2023-02-28T02:49:15;48.83;;;26.20;;
41233;SDS011;26968;42.686;23.352;2023-02-28T02:51:46;59.40;;;26.98;;
41233;SDS011;26968;42.686;23.352;2023-02-28T02:54:27;55.33;;;25.83;;
41233;SDS011;26968;42.686;23.352;2023-02-28T02:56:56;61.53;;;26.23;;
41233;SDS011;26968;42.686;23.352;2023-02-28T02:59:25;54.92;;;26.50;;
41233;SDS011;26968;42.686;23.352;2023-02-28T03:01:54;61.45;;;26.08;;
41233;SDS011;26968;42.686;23.352;2023-02-28T03:04:23;53.17;;;24.95;;
41233;SDS011;26968;42.686;23.352;2023-02-28T03:06:52;52.35;;;25.20;;
41233;SDS011;26968;42.686;23.352;2023-02-28T03:09:20;51.20;;;27.30;;
41233;SDS011;26968;42.686;23.352;2023-02-28T03:11:50;52.35;;;25.40;;
41233;SDS011;26968;42.686;23.352;2023-02-28T03:14:25;57.05;;;26.65;;
41233;SDS011;26968;42.686;23.352;2023-02-28T03:27:48;57.40;;;26.58;;
41233;SDS011;26968;42.686;23.352;2023-02-28T03:30:41;58.28;;;25.85;;
41233;SDS011;26968;42.686;23.352;2023-02-28T03:33:22;55.65;;;28.45;;
41233;SDS011;26968;42.686;23.352;2023-02-28T03:35:59;56.67;;;25.95;;
41233;SDS011;26968;42.686;23.352;2023-02-28T03:38:40;66.93;;;29.97;;
41233;SDS011;26968;42.686;23.352;2023-02-28T03:43:51;68.85;;;30.15;;
41233;SDS011;26968;42.686;23.352;2023-02-28T03:46:21;65.22;;;31.23;;
41233;SDS011;26968;42.686;23.352;2023-02-28T03:48:51;67.32;;;29.05;;
41233;SDS011;26968;42.686;23.352;2023-02-28T03:51:22;65.28;;;29.13;;
41233;SDS011;26968;42.686;23.352;2023-02-28T03:53:59;66.03;;;29.67;;
41233;SDS011;26968;42.686;23.352;2023-02-28T03:56:41;63.63;;;29.90;;
41233;SDS011;26968;42.686;23.352;2023-02-28T03:59:18;65.72;;;28.63;;
41233;SDS011;26968;42.686;23.352;2023-02-28T04:01:51;74.07;;;32.50;;
41233;SDS011;26968;42.686;23.352;2023-02-28T04:04:17;63.78;;;29.42;;
41233;SDS011;26968;42.686;23.352;2023-02-28T04:06:43;59.53;;;28.95;;
41233;SDS011;26968;42.686;23.352;2023-02-28T04:09:12;66.50;;;30.75;;
41233;SDS011;26968;42.686;23.352;2023-02-28T04:11:40;69.07;;;30.45;;
41233;SDS011;26968;42.686;23.352;2023-02-28T04:14:08;72.32;;;31.77;;
41233;SDS011;26968;42.686;23.352;2023-02-28T04:16:36;65.82;;;31.70;;
41233;SDS011;26968;42.686;23.352;2023-02-28T04:19:04;62.20;;;29.88;;
41233;SDS011;26968;42.686;23.352;2023-02-28T04:21:32;59.80;;;28.58;;
41233;SDS011;26968;42.686;23.352;2023-02-28T04:23:59;64.75;;;28.35;;
41233;SDS011;26968;42.686;23.352;2023-02-28T04:26:32;63.55;;;29.70;;
41233;SDS011;26968;42.686;23.352;2023-02-28T04:28:59;62.38;;;28.73;;
41233;SDS011;26968;42.686;23.352;2023-02-28T04:31:26;51.22;;;24.67;;
41233;SDS011;26968;42.686;23.352;2023-02-28T04:33:51;57.80;;;26.00;;
41233;SDS011;26968;42.686;23.352;2023-02-28T04:36:17;59.30;;;29.00;;
41233;SDS011;26968;42.686;23.352;2023-02-28T04:38:43;53.33;;;26.35;;
41233;SDS011;26968;42.686;23.352;2023-02-28T04:41:10;64.25;;;30.20;;
41233;SDS011;26968;42.686;23.352;2023-02-28T04:43:35;71.43;;;31.20;;
41233;SDS011;26968;42.686;23.352;2023-02-28T04:46:02;76.03;;;30.92;;
41233;SDS011;26968;42.686;23.352;2023-02-28T04:48:29;86.60;;;31.15;;
41233;SDS011;26968;42.686;23.352;2023-02-28T04:50:59;73.05;;;30.85;;
41233;SDS011;26968;42.686;23.352;2023-02-28T04:53:29;60.53;;;28.38;;
41233;SDS011;26968;42.686;23.352;2023-02-28T04:55:55;67.15;;;27.67;;
41233;SDS011;26968;42.686;23.352;2023-02-28T04:58:22;60.72;;;28.73;;
41233;SDS011;26968;42.686;23.352;2023-02-28T05:00:49;63.28;;;28.50;;
41233;SDS011;26968;42.686;23.352;2023-02-28T05:03:15;89.55;;;27.52;;
41233;SDS011;26968;42.686;23.352;2023-02-28T05:05:40;79.07;;;29.65;;
41233;SDS011;26968;42.686;23.352;2023-02-28T05:08:06;72.78;;;30.65;;
41233;SDS011;26968;42.686;23.352;2023-02-28T05:10:31;73.60;;;30.67;;
41233;SDS011;26968;42.686;23.352;2023-02-28T05:12:57;76.45;;;31.95;;
41233;SDS011;26968;42.686;23.352;2023-02-28T05:15:23;83.90;;;34.55;;
41233;SDS011;26968;42.686;23.352;2023-02-28T05:17:49;76.75;;;33.70;;
41233;SDS011;26968;42.686;23.352;2023-02-28T05:20:14;81.88;;;33.33;;
41233;SDS011;26968;42.686;23.352;2023-02-28T05:22:40;77.25;;;31.10;;
41233;SDS011;26968;42.686;23.352;2023-02-28T05:25:08;73.88;;;33.83;;
41233;SDS011;26968;42.686;23.352;2023-02-28T05:27:37;76.18;;;34.40;;
41233;SDS011;26968;42.686;23.352;2023-02-28T05:30:03;86.00;;;36.08;;
41233;SDS011;26968;42.686;23.352;2023-02-28T05:32:29;97.38;;;39.65;;
41233;SDS011;26968;42.686;23.352;2023-02-28T05:34:54;91.20;;;37.63;;
41233;SDS011;26968;42.686;23.352;2023-02-28T05:37:20;101.43;;;39.95;;
41233;SDS011;26968;42.686;23.352;2023-02-28T05:39:45;91.68;;;38.22;;
41233;SDS011;26968;42.686;23.352;2023-02-28T05:42:11;99.28;;;41.08;;
41233;SDS011;26968;42.686;23.352;2023-02-28T05:44:37;85.40;;;36.75;;
41233;SDS011;26968;42.686;23.352;2023-02-28T05:47:02;81.70;;;34.35;;
41233;SDS011;26968;42.686;23.352;2023-02-28T05:49:28;92.85;;;37.00;;
41233;SDS011;26968;42.686;23.352;2023-02-28T05:51:53;89.18;;;38.33;;
41233;SDS011;26968;42.686;23.352;2023-02-28T05:54:19;71.70;;;33.03;;
41233;SDS011;26968;42.686;23.352;2023-02-28T05:56:44;74.68;;;31.92;;
41233;SDS011;26968;42.686;23.352;2023-02-28T05:59:11;87.30;;;37.08;;
41233;SDS011;26968;42.686;23.352;2023-02-28T06:01:39;87.47;;;36.45;;
41233;SDS011;26968;42.686;23.352;2023-02-28T06:04:16;85.90;;;37.72;;
41233;SDS011;26968;42.686;23.352;2023-02-28T06:06:45;85.30;;;34.90;;
41233;SDS011;26968;42.686;23.352;2023-02-28T06:09:11;83.97;;;35.63;;
41233;SDS011;26968;42.686;23.352;2023-02-28T06:11:37;81.43;;;35.22;;
41233;SDS011;26968;42.686;23.352;2023-02-28T06:14:03;94.90;;;36.50;;
41233;SDS011;26968;42.686;23.352;2023-02-28T06:16:29;78.07;;;35.85;;
41233;SDS011;26968;42.686;23.352;2023-02-28T06:18:57;76.38;;;36.38;;
41233;SDS011;26968;42.686;23.352;2023-02-28T06:21:23;84.75;;;36.28;;
41233;SDS011;26968;42.686;23.352;2023-02-28T06:23:49;82.00;;;35.20;;
41233;SDS011;26968;42.686;23.352;2023-02-28T06:26:15;82.50;;;33.70;;
41233;SDS011;26968;42.686;23.352;2023-02-28T06:28:40;80.07;;;35.63;;
41233;SDS011;26968;42.686;23.352;2023-02-28T06:31:07;79.53;;;36.40;;
41233;SDS011;26968;42.686;23.352;2023-02-28T06:33:37;82.03;;;36.15;;
41233;SDS011;26968;42.686;23.352;2023-02-28T06:36:03;81.03;;;36.00;;
41233;SDS011;26968;42.686;23.352;2023-02-28T06:38:30;86.80;;;39.22;;
41233;SDS011;26968;42.686;23.352;2023-02-28T06:40:57;85.97;;;38.63;;
41233;SDS011;26968;42.686;23.352;2023-02-28T06:43:24;91.93;;;41.28;;
41233;SDS011;26968;42.686;23.352;2023-02-28T06:45:50;97.75;;;41.67;;
41233;SDS011;26968;42.686;23.352;2023-02-28T06:48:18;99.68;;;40.65;;
41233;SDS011;26968;42.686;23.352;2023-02-28T06:50:44;78.45;;;37.60;;
41233;SDS011;26968;42.686;23.352;2023-02-28T06:53:09;69.72;;;35.20;;
41233;SDS011;26968;42.686;23.352;2023-02-28T06:55:37;69.45;;;35.20;;
41233;SDS011;26968;42.686;23.352;2023-02-28T06:58:03;65.45;;;33.13;;
41233;SDS011;26968;42.686;23.352;2023-02-28T07:00:39;70.88;;;32.92;;
41233;SDS011;26968;42.686;23.352;2023-02-28T07:03:08;69.68;;;32.17;;
41233;SDS011;26968;42.686;23.352;2023-02-28T07:05:35;63.58;;;30.58;;
41233;SDS011;26968;42.686;23.352;2023-02-28T07:08:04;53.42;;;29.10;;
41233;SDS011;26968;42.686;23.352;2023-02-28T07:10:31;58.42;;;29.35;;
41233;SDS011;26968;42.686;23.352;2023-02-28T07:12:58;60.97;;;28.70;;
41233;SDS011;26968;42.686;23.352;2023-02-28T07:15:23;61.83;;;30.77;;
41233;SDS011;26968;42.686;23.352;2023-02-28T07:17:49;54.55;;;29.55;;
41233;SDS011;26968;42.686;23.352;2023-02-28T07:20:15;66.00;;;32.50;;
41233;SDS011;26968;42.686;23.352;2023-02-28T07:22:40;69.35;;;33.08;;
41233;SDS011;26968;42.686;23.352;2023-02-28T07:25:06;73.30;;;32.42;;
41233;SDS011;26968;42.686;23.352;2023-02-28T07:27:32;71.88;;;35.50;;
41233;SDS011;26968;42.686;23.352;2023-02-28T07:29:59;90.55;;;40.40;;
41233;SDS011;26968;42.686;23.352;2023-02-28T07:32:26;75.60;;;36.55;;
41233;SDS011;26968;42.686;23.352;2023-02-28T07:34:52;72.15;;;35.90;;
41233;SDS011;26968;42.686;23.352;2023-02-28T07:37:18;84.00;;;39.03;;
41233;SDS011;26968;42.686;23.352;2023-02-28T07:39:43;71.47;;;36.33;;
41233;SDS011;26968;42.686;23.352;2023-02-28T07:42:09;76.65;;;38.20;;
41233;SDS011;26968;42.686;23.352;2023-02-28T07:44:36;77.00;;;39.33;;
41233;SDS011;26968;42.686;23.352;2023-02-28T07:47:06;71.78;;;36.30;;
41233;SDS011;26968;42.686;23.352;2023-02-28T07:49:35;82.35;;;39.30;;
41233;SDS011;26968;42.686;23.352;2023-02-28T07:52:02;76.95;;;37.30;;
41233;SDS011;26968;42.686;23.352;2023-02-28T07:54:28;75.25;;;35.58;;
41233;SDS011;26968;42.686;23.352;2023-02-28T07:56:54;77.38;;;36.72;;
41233;SDS011;26968;42.686;23.352;2023-02-28T07:59:20;74.80;;;37.50;;
41233;SDS011;26968;42.686;23.352;2023-02-28T08:01:45;69.30;;;34.47;;
41233;SDS011;26968;42.686;23.352;2023-02-28T08:04:10;77.80;;;37.50;;
41233;SDS011;26968;42.686;23.352;2023-02-28T08:06:36;65.20;;;33.88;;
41233;SDS011;26968;42.686;23.352;2023-02-28T08:09:01;66.97;;;35.78;;
41233;SDS011;26968;42.686;23.352;2023-02-28T08:11:27;67.53;;;34.88;;
41233;SDS011;26968;42.686;23.352;2023-02-28T08:13:54;67.90;;;34.03;;
41233;SDS011;26968;42.686;23.352;2023-02-28T08:16:19;88.47;;;36.00;;
41233;SDS011;26968;42.686;23.352;2023-02-28T08:18:47;68.55;;;33.63;;
41233;SDS011;26968;42.686;23.352;2023-02-28T08:21:14;71.50;;;36.47;;
41233;SDS011;26968;42.686;23.352;2023-02-28T08:23:39;66.90;;;35.45;;
41233;SDS011;26968;42.686;23.352;2023-02-28T08:26:05;86.40;;;37.47;;
41233;SDS011;26968;42.686;23.352;2023-02-28T08:28:30;75.00;;;35.25;;
41233;SDS011;26968;42.686;23.352;2023-02-28T08:30:57;74.97;;;34.50;;
41233;SDS011;26968;42.686;23.352;2023-02-28T08:33:23;87.97;;;38.90;;
41233;SDS011;26968;42.686;23.352;2023-02-28T08:35:52;79.13;;;38.33;;
41233;SDS011;26968;42.686;23.352;2023-02-28T08:38:18;87.57;;;39.00;;
41233;SDS011;26968;42.686;23.352;2023-02-28T08:40:44;99.03;;;45.78;;
41233;SDS011;26968;42.686;23.352;2023-02-28T08:43:09;99.22;;;48.15;;
41233;SDS011;26968;42.686;23.352;2023-02-28T08:45:35;97.22;;;47.08;;
41233;SDS011;26968;42.686;23.352;2023-02-28T08:48:00;100.45;;;47.45;;
41233;SDS011;26968;42.686;23.352;2023-02-28T08:50:25;87.50;;;42.25;;
41233;SDS011;26968;42.686;23.352;2023-02-28T08:52:51;97.32;;;40.08;;
41233;SDS011;26968;42.686;23.352;2023-02-28T08:55:16;76.28;;;31.63;;
41233;SDS011;26968;42.686;23.352;2023-02-28T08:57:43;71.82;;;29.90;;
41233;SDS011;26968;42.686;23.352;2023-02-28T09:00:09;63.05;;;26.60;;
41233;SDS011;26968;42.686;23.352;2023-02-28T09:02:38;64.45;;;25.30;;
41233;SDS011;26968;42.686;23.352;2023-02-28T09:05:04;55.45;;;24.98;;
41233;SDS011;26968;42.686;23.352;2023-02-28T09:07:30;61.13;;;23.90;;
41233;SDS011;26968;42.686;23.352;2023-02-28T09:09:55;53.78;;;24.83;;
41233;SDS011;26968;42.686;23.352;2023-02-28T09:12:23;57.88;;;24.35;;
41233;SDS011;26968;42.686;23.352;2023-02-28T09:14:49;53.15;;;23.70;;
41233;SDS011;26968;42.686;23.352;2023-02-28T09:17:15;54.03;;;23.85;;
41233;SDS011;26968;42.686;23.352;2023-02-28T09:19:41;48.35;;;22.92;;
41233;SDS011;26968;42.686;23.352;2023-02-28T09:22:07;46.38;;;20.90;;
41233;SDS011;26968;42.686;23.352;2023-02-28T09:24:35;49.08;;;22.25;;
41233;SDS011;26968;42.686;23.352;2023-02-28T09:27:02;54.13;;;23.20;;
41233;SDS011;26968;42.686;23.352;2023-02-28T09:29:27;61.20;;;24.30;;
41233;SDS011;26968;42.686;23.352;2023-02-28T09:31:56;57.15;;;23.25;;
41233;SDS011;26968;42.686;23.352;2023-02-28T09:34:24;50.35;;;22.00;;
41233;SDS011;26968;42.686;23.352;2023-02-28T09:36:50;43.88;;;22.13;;
41233;SDS011;26968;42.686;23.352;2023-02-28T09:39:20;42.45;;;21.40;;
41233;SDS011;26968;42.686;23.352;2023-02-28T09:41:50;54.47;;;22.05;;
41233;SDS011;26968;42.686;23.352;2023-02-28T09:44:24;51.97;;;22.50;;
41233;SDS011;26968;42.686;23.352;2023-02-28T09:46:56;53.03;;;22.92;;
41233;SDS011;26968;42.686;23.352;2023-02-28T09:49:37;38.47;;;21.00;;
41233;SDS011;26968;42.686;23.352;2023-02-28T09:52:12;43.90;;;19.80;;
41233;SDS011;26968;42.686;23.352;2023-02-28T09:54:41;47.53;;;21.30;;
41233;SDS011;26968;42.686;23.352;2023-02-28T09:57:14;44.08;;;19.63;;
41233;SDS011;26968;42.686;23.352;2023-02-28T10:00:03;46.13;;;19.75;;
41233;SDS011;26968;42.686;23.352;2023-02-28T10:06:06;36.97;;;18.63;;
41233;SDS011;26968;42.686;23.352;2023-02-28T10:09:02;37.20;;;18.25;;
41233;SDS011;26968;42.686;23.352;2023-02-28T10:11:29;38.35;;;17.45;;
41233;SDS011;26968;42.686;23.352;2023-02-28T10:14:10;41.60;;;17.45;;
41233;SDS011;26968;42.686;23.352;2023-02-28T10:17:11;47.78;;;17.35;;
41233;SDS011;26968;42.686;23.352;2023-02-28T10:22:34;38.10;;;15.95;;
41233;SDS011;26968;42.686;23.352;2023-02-28T10:25:21;42.25;;;17.55;;
41233;SDS011;26968;42.686;23.352;2023-02-28T10:27:49;43.92;;;16.45;;
41233;SDS011;26968;42.686;23.352;2023-02-28T10:30:18;54.30;;;16.30;;
41233;SDS011;26968;42.686;23.352;2023-02-28T10:32:47;37.45;;;15.68;;
41233;SDS011;26968;42.686;23.352;2023-02-28T10:37:55;40.85;;;13.77;;
41233;SDS011;26968;42.686;23.352;2023-02-28T10:42:55;43.00;;;16.13;;
41233;SDS011;26968;42.686;23.352;2023-02-28T10:45:22;43.80;;;15.00;;
41233;SDS011;26968;42.686;23.352;2023-02-28T10:47:58;36.38;;;15.93;;
41233;SDS011;26968;42.686;23.352;2023-02-28T10:50:44;43.00;;;15.93;;
41233;SDS011;26968;42.686;23.352;2023-02-28T10:58:24;43.88;;;15.25;;
41233;SDS011;26968;42.686;23.352;2023-02-28T11:00:51;39.17;;;15.43;;
41233;SDS011;26968;42.686;23.352;2023-02-28T11:03:51;39.35;;;14.32;;
41233;SDS011;26968;42.686;23.352;2023-02-28T11:06:16;32.42;;;13.80;;
41233;SDS011;26968;42.686;23.352;2023-02-28T11:08:46;32.92;;;14.00;;
41233;SDS011;26968;42.686;23.352;2023-02-28T11:11:16;34.55;;;14.73;;
41233;SDS011;26968;42.686;23.352;2023-02-28T11:13:44;40.80;;;14.73;;
41233;SDS011;26968;42.686;23.352;2023-02-28T11:16:12;33.90;;;15.10;;
41233;SDS011;26968;42.686;23.352;2023-02-28T11:21:15;34.25;;;13.93;;
41233;SDS011;26968;42.686;23.352;2023-02-28T11:26:55;34.05;;;14.40;;
41233;SDS011;26968;42.686;23.352;2023-02-28T11:29:21;39.83;;;14.98;;
41233;SDS011;26968;42.686;23.352;2023-02-28T11:32:01;41.10;;;15.23;;
41233;SDS011;26968;42.686;23.352;2023-02-28T11:34:30;38.58;;;15.30;;
41233;SDS011;26968;42.686;23.352;2023-02-28T11:36:57;34.20;;;14.90;;
41233;SDS011;26968;42.686;23.352;2023-02-28T11:39:25;34.53;;;15.45;;
41233;SDS011;26968;42.686;23.352;2023-02-28T11:47:53;31.90;;;15.00;;
41233;SDS011;26968;42.686;23.352;2023-02-28T11:52:53;33.65;;;15.05;;
41233;SDS011;26968;42.686;23.352;2023-02-28T11:55:27;31.23;;;15.40;;
41233;SDS011;26968;42.686;23.352;2023-02-28T12:01:08;36.72;;;15.30;;
41233;SDS011;26968;42.686;23.352;2023-02-28T12:06:18;38.55;;;15.52;;
41233;SDS011;26968;42.686;23.352;2023-02-28T12:17:46;38.03;;;14.82;;
41233;SDS011;26968;42.686;23.352;2023-02-28T12:20:45;36.05;;;17.10;;
41233;SDS011;26968;42.686;23.352;2023-02-28T12:29:21;42.30;;;14.80;;
41233;SDS011;26968;42.686;23.352;2023-02-28T12:34:37;36.05;;;15.57;;
41233;SDS011;26968;42.686;23.352;2023-02-28T12:37:10;34.78;;;14.95;;
41233;SDS011;26968;42.686;23.352;2023-02-28T12:39:44;32.97;;;13.90;;
41233;SDS011;26968;42.686;23.352;2023-02-28T12:42:15;34.08;;;14.25;;
41233;SDS011;26968;42.686;23.352;2023-02-28T12:44:52;40.35;;;16.13;;
41233;SDS011;26968;42.686;23.352;2023-02-28T12:47:38;31.98;;;13.75;;
41233;SDS011;26968;42.686;23.352;2023-02-28T12:50:08;33.38;;;13.93;;
41233;SDS011;26968;42.686;23.352;2023-02-28T12:55:33;31.17;;;12.95;;
41233;SDS011;26968;42.686;23.352;2023-02-28T13:00:32;38.10;;;14.43;;
41233;SDS011;26968;42.686;23.352;2023-02-28T13:03:26;31.35;;;14.30;;
41233;SDS011;26968;42.686;23.352;2023-02-28T13:11:47;37.20;;;13.73;;
41233;SDS011;26968;42.686;23.352;2023-02-28T13:21:59;39.38;;;14.38;;
41233;SDS011;26968;42.686;23.352;2023-02-28T13:25:13;39.78;;;14.23;;
41233;SDS011;26968;42.686;23.352;2023-02-28T13:29:58;41.72;;;16.70;;
41233;SDS011;26968;42.686;23.352;2023-02-28T13:32:33;37.72;;;15.48;;
41233;SDS011;26968;42.686;23.352;2023-02-28T13:37:31;35.03;;;14.20;;
41233;SDS011;26968;42.686;23.352;2023-02-28T13:43:01;31.95;;;14.07;;
41233;SDS011;26968;42.686;23.352;2023-02-28T13:45:28;37.53;;;14.02;;
41233;SDS011;26968;42.686;23.352;2023-02-28T13:47:59;33.92;;;14.07;;
41233;SDS011;26968;42.686;23.352;2023-02-28T13:50:30;36.80;;;13.63;;
41233;SDS011;26968;42.686;23.352;2023-02-28T13:55:38;50.00;;;15.82;;
41233;SDS011;26968;42.686;23.352;2023-02-28T13:58:27;39.50;;;16.45;;
41233;SDS011;26968;42.686;23.352;2023-02-28T14:01:15;28.92;;;13.05;;
41233;SDS011;26968;42.686;23.352;2023-02-28T14:06:38;34.10;;;12.80;;
41233;SDS011;26968;42.686;23.352;2023-02-28T14:11:37;36.80;;;13.05;;
41233;SDS011;26968;42.686;23.352;2023-02-28T14:14:05;30.27;;;12.82;;
41233;SDS011;26968;42.686;23.352;2023-02-28T14:19:12;33.90;;;14.70;;
41233;SDS011;26968;42.686;23.352;2023-02-28T14:27:20;42.97;;;14.95;;
41233;SDS011;26968;42.686;23.352;2023-02-28T14:30:03;26.83;;;13.50;;
41233;SDS011;26968;42.686;23.352;2023-02-28T14:40:39;39.13;;;13.68;;
41233;SDS011;26968;42.686;23.352;2023-02-28T14:43:06;35.58;;;13.98;;
41233;SDS011;26968;42.686;23.352;2023-02-28T14:45:48;36.40;;;14.25;;
41233;SDS011;26968;42.686;23.352;2023-02-28T14:48:16;42.25;;;13.20;;
41233;SDS011;26968;42.686;23.352;2023-02-28T14:50:47;39.30;;;13.00;;
41233;SDS011;26968;42.686;23.352;2023-02-28T14:53:17;35.13;;;13.68;;
41233;SDS011;26968;42.686;23.352;2023-02-28T14:55:45;38.05;;;14.57;;
41233;SDS011;26968;42.686;23.352;2023-02-28T14:58:26;36.70;;;12.65;;
41233;SDS011;26968;42.686;23.352;2023-02-28T15:00:54;42.23;;;13.33;;
41233;SDS011;26968;42.686;23.352;2023-02-28T15:03:36;41.25;;;12.98;;
41233;SDS011;26968;42.686;23.352;2023-02-28T15:06:14;32.95;;;12.82;;
41233;SDS011;26968;42.686;23.352;2023-02-28T15:08:41;33.15;;;12.68;;
41233;SDS011;26968;42.686;23.352;2023-02-28T15:11:08;40.10;;;12.63;;
41233;SDS011;26968;42.686;23.352;2023-02-28T15:13:53;27.08;;;12.18;;
41233;SDS011;26968;42.686;23.352;2023-02-28T15:19:06;33.90;;;13.50;;
41233;SDS011;26968;42.686;23.352;2023-02-28T15:21:39;31.55;;;12.57;;
41233;SDS011;26968;42.686;23.352;2023-02-28T15:24:10;32.63;;;12.07;;
41233;SDS011;26968;42.686;23.352;2023-02-28T15:26:50;38.80;;;11.77;;
41233;SDS011;26968;42.686;23.352;2023-02-28T15:29:20;41.97;;;12.00;;
41233;SDS011;26968;42.686;23.352;2023-02-28T15:32:06;25.17;;;11.63;;
41233;SDS011;26968;42.686;23.352;2023-02-28T15:34:40;26.17;;;11.15;;
41233;SDS011;26968;42.686;23.352;2023-02-28T15:39:51;27.00;;;11.80;;
41233;SDS011;26968;42.686;23.352;2023-02-28T15:42:19;33.28;;;12.00;;
41233;SDS011;26968;42.686;23.352;2023-02-28T15:44:46;21.30;;;10.80;;
41233;SDS011;26968;42.686;23.352;2023-02-28T15:47:19;26.17;;;12.55;;
41233;SDS011;26968;42.686;23.352;2023-02-28T15:49:54;34.92;;;11.57;;
41233;SDS011;26968;42.686;23.352;2023-02-28T15:55:08;29.33;;;12.07;;
41233;SDS011;26968;42.686;23.352;2023-02-28T15:57:38;29.33;;;12.18;;
41233;SDS011;26968;42.686;23.352;2023-02-28T16:00:06;31.13;;;13.88;;
41233;SDS011;26968;42.686;23.352;2023-02-28T16:02:38;27.73;;;12.77;;
41233;SDS011;26968;42.686;23.352;2023-02-28T16:07:36;22.60;;;11.30;;
41233;SDS011;26968;42.686;23.352;2023-02-28T16:10:07;21.53;;;11.60;;
41233;SDS011;26968;42.686;23.352;2023-02-28T16:12:34;33.75;;;14.98;;
41233;SDS011;26968;42.686;23.352;2023-02-28T16:15:03;39.58;;;25.45;;
41233;SDS011;26968;42.686;23.352;2023-02-28T16:17:33;34.85;;;18.23;;
41233;SDS011;26968;42.686;23.352;2023-02-28T16:20:05;40.83;;;23.60;;
41233;SDS011;26968;42.686;23.352;2023-02-28T16:22:45;35.72;;;18.60;;
41233;SDS011;26968;42.686;23.352;2023-02-28T16:25:11;37.83;;;15.30;;
41233;SDS011;26968;42.686;23.352;2023-02-28T16:27:38;27.63;;;13.88;;
41233;SDS011;26968;42.686;23.352;2023-02-28T16:30:04;20.42;;;12.25;;
41233;SDS011;26968;42.686;23.352;2023-02-28T16:32:41;28.35;;;12.05;;
41233;SDS011;26968;42.686;23.352;2023-02-28T16:35:11;20.40;;;9.10;;
41233;SDS011;26968;42.686;23.352;2023-02-28T16:37:39;24.58;;;10.23;;
41233;SDS011;26968;42.686;23.352;2023-02-28T16:40:04;27.55;;;10.25;;
41233;SDS011;26968;42.686;23.352;2023-02-28T16:42:31;20.88;;;8.43;;
41233;SDS011;26968;42.686;23.352;2023-02-28T16:44:57;23.85;;;8.63;;
41233;SDS011;26968;42.686;23.352;2023-02-28T16:47:23;17.80;;;9.00;;
41233;SDS011;26968;42.686;23.352;2023-02-28T16:49:49;26.00;;;9.35;;